createdAt,value
2022-09-01T00:00:51.581Z,2.67
2022-09-01T00:03:23.914Z,2.17
2022-09-01T00:05:57.325Z,2.40
2022-09-01T00:08:30.430Z,2.55
2022-09-01T00:11:00.678Z,2.50
2022-09-01T00:13:33.433Z,2.50
2022-09-01T00:16:04.656Z,2.45
2022-09-01T00:18:36.236Z,2.60
2022-09-01T00:21:07.013Z,2.67
2022-09-01T00:26:10.777Z,2.50
2022-09-01T00:28:42.056Z,2.55
2022-09-01T00:31:15.193Z,2.40
2022-09-01T00:33:46.041Z,2.58
2022-09-01T00:38:49.196Z,2.50
2022-09-01T00:41:21.969Z,2.22
2022-09-01T00:43:56.001Z,3.10
2022-09-01T00:46:30.561Z,2.78
2022-09-01T00:49:08.695Z,2.78
2022-09-01T00:51:41.776Z,3.03
2022-09-01T00:54:21.175Z,2.90
2022-09-01T00:56:57.783Z,2.67
2022-09-01T00:59:30.944Z,2.80
2022-09-01T01:02:01.452Z,2.60
2022-09-01T01:04:32.272Z,2.90
2022-09-01T01:09:45.532Z,3.00
2022-09-01T01:14:52.682Z,2.55
2022-09-01T01:17:25.438Z,2.90
2022-09-01T01:20:11.694Z,2.60
2022-09-01T01:23:10.189Z,3.22
2022-09-01T01:25:47.949Z,2.90
2022-09-01T01:28:22.427Z,2.85
2022-09-01T01:31:01.868Z,2.88
2022-09-01T01:33:39.286Z,2.90
2022-09-01T01:36:16.562Z,2.63
2022-09-01T01:38:52.564Z,3.05
2022-09-01T01:41:26.294Z,3.35
2022-09-01T01:43:57.254Z,3.30
2022-09-01T01:46:28.965Z,2.88
2022-09-01T01:49:01.447Z,2.90
2022-09-01T01:51:33.118Z,2.72
2022-09-01T01:54:06.194Z,2.63
2022-09-01T01:56:41.984Z,3.03
2022-09-01T01:59:16.806Z,3.33
2022-09-01T02:01:51.476Z,3.15
2022-09-01T02:04:23.631Z,3.10
2022-09-01T02:06:56.072Z,2.95
2022-09-01T02:09:27.850Z,3.20
2022-09-01T02:12:00.625Z,2.92
2022-09-01T02:14:34.086Z,3.25
2022-09-01T02:17:07.426Z,3.30
2022-09-01T02:19:43.489Z,3.20
2022-09-01T02:22:14.047Z,3.25
2022-09-01T02:24:46.656Z,3.30
2022-09-01T02:27:26.009Z,3.25
2022-09-01T02:29:58.884Z,3.25
2022-09-01T02:32:29.483Z,3.20
2022-09-01T02:35:01.390Z,3.10
2022-09-01T02:40:02.274Z,3.13
2022-09-01T02:45:16.311Z,3.10
2022-09-01T02:47:48.653Z,3.35
2022-09-01T02:50:22.642Z,3.20
2022-09-01T02:52:53.180Z,3.13
2022-09-01T02:55:25.335Z,3.15
2022-09-01T02:57:58.518Z,3.00
2022-09-01T03:00:33.603Z,3.20
2022-09-01T03:03:05.932Z,3.40
2022-09-01T03:05:39.367Z,3.33
2022-09-01T03:08:14.849Z,3.38
2022-09-01T03:10:48.058Z,3.53
2022-09-01T03:13:25.330Z,3.08
2022-09-01T03:15:55.754Z,3.55
2022-09-01T03:18:26.243Z,3.50
2022-09-01T03:20:56.576Z,3.42
2022-09-01T03:23:28.278Z,3.53
2022-09-01T03:25:59.160Z,4.03
2022-09-01T03:31:02.911Z,3.30
2022-09-01T03:36:05.035Z,3.60
2022-09-01T03:38:48.907Z,3.50
2022-09-01T03:41:25.267Z,3.80
2022-09-01T03:44:00.624Z,3.80
2022-09-01T03:46:36.824Z,3.40
2022-09-01T03:49:13.419Z,3.67
2022-09-01T03:51:45.189Z,3.70
2022-09-01T03:54:17.876Z,3.60
2022-09-01T03:56:48.162Z,3.92
2022-09-01T03:59:25.631Z,3.60
2022-09-01T04:01:56.938Z,3.63
2022-09-01T04:04:27.422Z,3.78
2022-09-01T04:06:57.641Z,3.60
2022-09-01T04:09:28.019Z,3.47
2022-09-01T04:11:58.214Z,3.58
2022-09-01T04:14:31.168Z,3.13
2022-09-01T04:17:13.805Z,3.70
2022-09-01T04:19:44.012Z,3.92
2022-09-01T04:22:17.756Z,3.67
2022-09-01T04:24:48.486Z,3.75
2022-09-01T04:27:23.234Z,3.50
2022-09-01T04:29:57.938Z,3.90
2022-09-01T04:32:31.008Z,3.78
2022-09-01T04:35:04.213Z,3.22
2022-09-01T04:37:36.589Z,3.15
2022-09-01T04:40:08.847Z,3.28
2022-09-01T04:42:40.083Z,3.38
2022-09-01T04:45:20.434Z,3.47
2022-09-01T04:47:52.364Z,3.70
2022-09-01T04:50:23.804Z,3.85
2022-09-01T04:53:20.443Z,3.47
2022-09-01T04:55:53.878Z,3.42
2022-09-01T04:58:25.744Z,3.80
2022-09-01T05:03:32.255Z,3.45
2022-09-01T05:06:08.900Z,3.30
2022-09-01T05:08:40.277Z,3.85
2022-09-01T05:11:21.175Z,3.53
2022-09-01T05:13:56.146Z,4.28
2022-09-01T05:16:29.143Z,3.70
2022-09-01T05:19:01.677Z,3.40
2022-09-01T05:21:36.709Z,3.92
2022-09-01T05:24:10.873Z,3.42
2022-09-01T05:26:42.993Z,3.63
2022-09-01T05:29:17.619Z,3.67
2022-09-01T05:31:55.012Z,3.40
2022-09-01T05:34:29.893Z,4.30
2022-09-01T05:37:02.386Z,3.80
2022-09-01T05:39:32.947Z,3.67
2022-09-01T05:44:36.132Z,3.67
2022-09-01T05:47:19.127Z,3.67
2022-09-01T05:49:53.804Z,3.72
2022-09-01T05:52:26.401Z,3.78
2022-09-01T05:55:00.253Z,3.17
2022-09-01T05:57:35.577Z,3.83
2022-09-01T06:00:14.094Z,4.20
2022-09-01T06:02:47.334Z,3.92
2022-09-01T06:05:22.239Z,4.00
2022-09-01T06:07:57.377Z,3.97
2022-09-01T06:10:29.766Z,3.65
2022-09-01T06:13:02.729Z,3.97
2022-09-01T06:15:33.943Z,4.13
2022-09-01T06:18:07.119Z,3.92
2022-09-01T06:20:43.713Z,4.32
2022-09-01T06:23:15.535Z,3.80
2022-09-01T06:25:48.064Z,3.88
2022-09-01T06:28:23.949Z,3.30
2022-09-01T06:30:57.365Z,3.50
2022-09-01T06:33:31.137Z,3.40
2022-09-01T06:36:05.786Z,3.20
2022-09-01T06:38:36.289Z,3.20
2022-09-01T06:41:13.111Z,3.53
2022-09-01T06:43:44.773Z,3.40
2022-09-01T06:46:15.223Z,3.50
2022-09-01T06:48:49.165Z,2.90
2022-09-01T06:51:23.107Z,2.65
2022-09-01T06:53:59.564Z,2.72
2022-09-01T06:56:42.806Z,2.70
2022-09-01T06:59:29.191Z,2.25
2022-09-01T07:02:06.809Z,2.28
2022-09-01T07:05:06.103Z,2.60
2022-09-01T07:14:15.308Z,2.50
2022-09-01T07:16:52.442Z,2.20
2022-09-01T07:19:48.243Z,2.38
2022-09-01T07:25:11.815Z,2.33
2022-09-01T07:27:52.856Z,2.42
2022-09-01T07:30:27.255Z,2.50
2022-09-01T07:33:41.533Z,2.20
2022-09-01T07:39:48.599Z,2.30
2022-09-01T07:47:55.890Z,2.03
2022-09-01T07:50:40.988Z,1.90
2022-09-01T07:53:12.846Z,1.80
2022-09-01T07:55:46.714Z,2.25
2022-09-01T07:58:17.526Z,2.05
2022-09-01T08:00:50.233Z,2.03
2022-09-01T08:03:25.391Z,1.90
2022-09-01T08:06:00.934Z,1.80
2022-09-01T08:08:31.338Z,2.00
2022-09-01T08:11:05.352Z,1.70
2022-09-01T08:13:41.620Z,2.00
2022-09-01T08:16:17.984Z,2.30
2022-09-01T08:18:50.921Z,2.10
2022-09-01T08:21:34.202Z,1.85
2022-09-01T08:24:22.329Z,2.05
2022-09-01T08:26:55.233Z,2.10
2022-09-01T08:29:25.532Z,1.70
2022-09-01T08:31:58.642Z,2.17
2022-09-01T08:34:29.293Z,2.35
2022-09-01T08:36:59.654Z,2.42
2022-09-01T08:39:30.721Z,2.53
2022-09-01T08:42:15.229Z,3.50
2022-09-01T08:44:55.883Z,3.35
2022-09-01T08:47:39.331Z,2.70
2022-09-01T08:50:15.834Z,3.00
2022-09-01T08:53:26.558Z,2.80
2022-09-01T08:56:00.745Z,2.50
2022-09-01T08:58:35.138Z,2.75
2022-09-01T09:01:33.166Z,2.70
2022-09-01T09:04:26.463Z,2.75
2022-09-01T09:07:05.837Z,2.60
2022-09-01T09:09:49.328Z,2.53
2022-09-01T09:12:52.997Z,2.63
2022-09-01T09:15:37.504Z,2.30
2022-09-01T09:18:39.185Z,2.40
2022-09-01T09:21:19.390Z,2.08
2022-09-01T09:23:56.552Z,1.83
2022-09-01T09:26:42.072Z,2.10
2022-09-01T09:29:12.698Z,2.00
2022-09-01T09:31:50.485Z,1.80
2022-09-01T09:34:36.197Z,1.77
2022-09-01T09:37:27.409Z,1.58
2022-09-01T09:40:11.089Z,1.70
2022-09-01T09:42:42.484Z,1.90
2022-09-01T09:45:29.748Z,1.50
2022-09-01T09:48:03.816Z,2.20
2022-09-01T09:50:38.283Z,1.55
2022-09-01T09:53:21.879Z,1.40
2022-09-01T09:56:01.429Z,1.67
2022-09-01T09:58:39.608Z,1.90
2022-09-01T10:01:17.710Z,1.88
2022-09-01T10:03:54.092Z,1.52
2022-09-01T10:06:36.094Z,1.60
2022-09-01T10:09:11.440Z,1.67
2022-09-01T10:11:45.249Z,1.80
2022-09-01T10:14:35.839Z,1.70
2022-09-01T10:17:17.619Z,1.42
2022-09-01T10:19:57.555Z,1.65
2022-09-01T10:22:29.122Z,1.63
2022-09-01T10:25:00.739Z,1.50
2022-09-01T10:27:35.923Z,1.40
2022-09-01T10:30:18.367Z,1.17
2022-09-01T10:32:55.924Z,1.50
2022-09-01T10:35:34.123Z,1.40
2022-09-01T10:38:11.912Z,1.50
2022-09-01T10:40:50.021Z,1.50
2022-09-01T10:43:38.297Z,1.40
2022-09-01T10:46:50.583Z,1.65
2022-09-01T10:49:53.272Z,1.30
2022-09-01T10:52:59.878Z,1.23
2022-09-01T10:55:40.056Z,1.80
2022-09-01T11:02:28.138Z,1.90
2022-09-01T11:05:19.449Z,1.40
2022-09-01T11:08:15.200Z,1.23
2022-09-01T11:10:58.558Z,1.20
2022-09-01T11:13:49.977Z,1.10
2022-09-01T11:16:52.383Z,1.02
2022-09-01T11:19:44.518Z,1.10
2022-09-01T11:22:34.979Z,1.20
2022-09-01T11:28:41.949Z,1.15
2022-09-01T11:31:26.464Z,1.40
2022-09-01T11:34:06.999Z,1.30
2022-09-01T11:36:40.842Z,1.20
2022-09-01T11:39:36.069Z,1.10
2022-09-01T11:42:14.816Z,1.27
2022-09-01T11:44:55.713Z,1.50
2022-09-01T11:47:31.032Z,1.58
2022-09-01T11:50:05.006Z,1.40
2022-09-01T11:52:41.623Z,1.30
2022-09-01T11:55:13.655Z,1.42
2022-09-01T11:57:44.012Z,1.55
2022-09-01T12:00:29.067Z,1.40
2022-09-01T12:03:00.302Z,1.40
2022-09-01T12:05:36.060Z,1.30
2022-09-01T12:08:17.793Z,1.23
2022-09-01T12:10:49.099Z,1.38
2022-09-01T12:13:24.236Z,1.23
2022-09-01T12:16:17.554Z,1.20
2022-09-01T12:18:52.188Z,1.20
2022-09-01T12:21:26.238Z,1.20
2022-09-01T12:23:57.631Z,1.33
2022-09-01T12:26:30.965Z,1.35
2022-09-01T12:29:01.620Z,1.13
2022-09-01T12:31:34.886Z,1.30
2022-09-01T12:34:05.344Z,1.20
2022-09-01T12:36:38.884Z,1.10
2022-09-01T12:39:26.150Z,1.10
2022-09-01T12:42:09.122Z,1.17
2022-09-01T12:44:51.129Z,1.20
2022-09-01T12:47:53.678Z,1.20
2022-09-01T12:50:50.943Z,1.30
2022-09-01T12:53:30.619Z,1.60
2022-09-01T12:56:24.584Z,1.77
2022-09-01T12:59:15.476Z,1.80
2022-09-01T13:01:47.716Z,1.95
2022-09-01T13:04:31.727Z,1.70
2022-09-01T13:07:09.229Z,1.90
2022-09-01T13:09:39.603Z,2.00
2022-09-01T13:12:16.898Z,1.80
2022-09-01T13:14:47.223Z,1.70
2022-09-01T13:17:17.844Z,1.65
2022-09-01T13:19:50.636Z,1.70
2022-09-01T13:22:20.811Z,1.90
2022-09-01T13:24:50.941Z,1.30
2022-09-01T13:27:22.337Z,1.30
2022-09-01T13:29:53.433Z,1.50
2022-09-01T13:32:25.661Z,1.40
2022-09-01T13:34:59.907Z,1.75
2022-09-01T13:37:30.391Z,1.40
2022-09-01T13:40:01.703Z,1.42
2022-09-01T13:42:33.332Z,1.50
2022-09-01T13:45:07.378Z,1.55
2022-09-01T13:48:15.336Z,1.70
2022-09-01T13:51:14.132Z,2.03
2022-09-01T13:53:21.340Z,1.67
2022-09-01T13:55:52.080Z,1.50
2022-09-01T13:58:22.248Z,1.48
2022-09-01T14:00:52.879Z,1.73
2022-09-01T14:03:26.270Z,1.30
2022-09-01T14:05:59.982Z,1.45
2022-09-01T14:08:31.491Z,1.65
2022-09-01T14:11:01.687Z,1.40
2022-09-01T14:13:32.582Z,1.77
2022-09-01T14:16:03.153Z,1.80
2022-09-01T14:18:36.926Z,1.50
2022-09-01T14:21:15.610Z,1.63
2022-09-01T14:23:46.609Z,1.45
2022-09-01T14:26:19.133Z,1.30
2022-09-01T14:28:50.519Z,1.35
2022-09-01T14:31:21.791Z,1.60
2022-09-01T14:33:52.438Z,1.40
2022-09-01T14:36:29.257Z,1.38
2022-09-01T14:38:59.626Z,1.50
2022-09-01T14:41:29.869Z,1.50
2022-09-01T14:44:03.393Z,1.60
2022-09-01T14:46:34.731Z,1.75
2022-09-01T14:49:07.239Z,1.65
2022-09-01T14:54:30.259Z,1.52
2022-09-01T14:59:51.280Z,1.75
2022-09-01T15:02:25.392Z,1.60
2022-09-01T15:04:55.576Z,1.77
2022-09-01T15:07:28.387Z,1.80
2022-09-01T15:09:59.052Z,1.58
2022-09-01T15:12:31.065Z,1.58
2022-09-01T15:15:01.726Z,1.42
2022-09-01T15:17:32.295Z,1.50
2022-09-01T15:20:24.084Z,1.33
2022-09-01T15:22:57.315Z,1.30
2022-09-01T15:25:28.657Z,1.50
2022-09-01T15:27:58.910Z,1.38
2022-09-01T15:30:29.167Z,1.40
2022-09-01T15:32:59.373Z,1.40
2022-09-01T15:35:31.700Z,1.23
2022-09-01T15:38:05.179Z,1.40
2022-09-01T15:40:36.233Z,3.58
2022-09-01T15:43:08.998Z,6.50
2022-09-01T15:45:39.290Z,2.17
2022-09-01T15:50:39.440Z,1.60
2022-09-01T15:53:13.467Z,1.38
2022-09-01T15:55:46.932Z,1.10
2022-09-01T15:58:24.733Z,0.95
2022-09-01T16:01:00.888Z,1.20
2022-09-01T16:03:32.209Z,1.20
2022-09-01T16:06:03.343Z,1.20
2022-09-01T16:08:37.038Z,1.20
2022-09-01T16:11:12.296Z,1.25
2022-09-01T16:13:44.116Z,1.40
2022-09-01T16:16:40.501Z,1.30
2022-09-01T16:19:27.499Z,1.40
2022-09-01T16:22:08.787Z,1.20
2022-09-01T16:24:46.437Z,1.30
2022-09-01T16:27:21.263Z,1.20
2022-09-01T16:29:55.011Z,1.70
2022-09-01T16:32:27.241Z,1.30
2022-09-01T16:34:57.586Z,1.00
2022-09-01T16:37:42.878Z,1.23
2022-09-01T16:40:32.737Z,1.13
2022-09-01T16:43:12.576Z,1.40
2022-09-01T16:45:54.621Z,1.20
2022-09-01T16:48:34.113Z,1.77
2022-09-01T16:51:16.872Z,1.67
2022-09-01T16:54:01.661Z,1.70
2022-09-01T16:56:41.978Z,2.85
2022-09-01T16:59:27.282Z,1.88
2022-09-01T17:02:11.628Z,2.33
2022-09-01T17:04:45.876Z,3.65
2022-09-01T17:07:19.164Z,2.38
2022-09-01T17:10:01.846Z,1.90
2022-09-01T17:12:43.512Z,2.95
2022-09-01T17:15:18.254Z,2.53
2022-09-01T17:17:55.940Z,1.70
2022-09-01T17:20:31.508Z,1.40
2022-09-01T17:23:08.813Z,1.40
2022-09-01T17:25:44.982Z,2.28
2022-09-01T17:28:27.492Z,1.70
2022-09-01T17:31:14.431Z,1.70
2022-09-01T17:34:06.424Z,1.63
2022-09-01T17:36:51.729Z,1.45
2022-09-01T17:39:38.093Z,1.60
2022-09-01T17:42:18.498Z,1.45
2022-09-01T17:44:58.213Z,1.27
2022-09-01T17:47:39.890Z,1.42
2022-09-01T17:50:19.127Z,1.83
2022-09-01T17:53:10.328Z,1.33
2022-09-01T17:55:52.912Z,1.33
2022-09-01T17:58:40.835Z,1.20
2022-09-01T18:01:22.184Z,1.50
2022-09-01T18:04:38.774Z,1.40
2022-09-01T18:07:24.084Z,1.50
2022-09-01T18:09:59.544Z,1.15
2022-09-01T18:12:35.344Z,1.40
2022-09-01T18:15:14.326Z,1.40
2022-09-01T18:17:52.500Z,1.30
2022-09-01T18:20:28.308Z,1.38
2022-09-01T18:23:07.811Z,1.48
2022-09-01T18:25:43.689Z,1.35
2022-09-01T18:28:14.102Z,1.70
2022-09-01T18:30:53.268Z,1.40
2022-09-01T18:33:33.363Z,1.40
2022-09-01T18:36:23.511Z,1.40
2022-09-01T18:39:00.246Z,1.40
2022-09-01T18:41:46.655Z,1.50
2022-09-01T18:44:39.812Z,1.67
2022-09-01T18:47:14.438Z,1.60
2022-09-01T18:49:59.492Z,1.60
2022-09-01T18:52:56.262Z,1.30
2022-09-01T18:55:36.246Z,1.63
2022-09-01T18:58:12.068Z,1.23
2022-09-01T19:00:52.206Z,1.50
2022-09-01T19:03:31.718Z,1.48
2022-09-01T19:06:27.278Z,1.30
2022-09-01T19:09:19.714Z,1.42
2022-09-01T19:12:05.792Z,1.80
2022-09-01T19:14:45.831Z,1.42
2022-09-01T19:17:39.303Z,1.63
2022-09-01T19:20:15.031Z,1.65
2022-09-01T19:22:55.093Z,2.40
2022-09-01T19:25:41.827Z,3.00
2022-09-01T19:28:24.607Z,3.53
2022-09-01T19:31:07.124Z,2.97
2022-09-01T19:33:44.992Z,2.58
2022-09-01T19:36:25.078Z,2.50
2022-09-01T19:38:58.366Z,2.23
2022-09-01T19:41:35.700Z,2.67
2022-09-01T19:44:14.583Z,2.58
2022-09-01T19:46:50.978Z,2.80
2022-09-01T19:49:35.475Z,2.10
2022-09-01T19:52:14.187Z,1.88
2022-09-01T19:54:57.538Z,1.80
2022-09-01T19:57:36.312Z,1.88
2022-09-01T20:00:15.195Z,1.90
2022-09-01T20:02:54.442Z,1.80
2022-09-01T20:05:33.311Z,1.95
2022-09-01T20:08:10.814Z,1.80
2022-09-01T20:11:05.373Z,1.80
2022-09-01T20:14:08.922Z,1.65
2022-09-01T20:16:43.643Z,2.03
2022-09-01T20:19:19.637Z,1.70
2022-09-01T20:21:51.512Z,1.73
2022-09-01T20:24:34.847Z,1.80
2022-09-01T20:27:22.248Z,1.77
2022-09-01T20:30:00.729Z,1.92
2022-09-01T20:32:41.247Z,2.30
2022-09-01T20:35:17.727Z,1.90
2022-09-01T20:37:53.432Z,1.85
2022-09-01T20:40:27.363Z,1.70
2022-09-01T20:43:18.565Z,1.70
2022-09-01T20:45:49.364Z,1.65
2022-09-01T20:50:59.791Z,1.58
2022-09-01T20:54:04.453Z,1.95
2022-09-01T20:56:45.580Z,1.50
2022-09-01T20:59:27.378Z,1.30
2022-09-01T21:02:05.029Z,1.60
2022-09-01T21:04:49.193Z,1.42
2022-09-01T21:07:22.364Z,1.50
2022-09-01T21:10:02.643Z,1.45
2022-09-01T21:12:40.244Z,1.63
2022-09-01T21:15:28.875Z,1.40
2022-09-01T21:18:16.191Z,1.60
2022-09-01T21:21:00.214Z,1.30
2022-09-01T21:23:32.210Z,1.35
2022-09-01T21:26:03.603Z,1.60
2022-09-01T21:28:33.951Z,1.52
2022-09-01T21:31:10.434Z,1.52
2022-09-01T21:33:40.699Z,1.58
2022-09-01T21:36:12.274Z,1.40
2022-09-01T21:38:42.495Z,1.67
2022-09-01T21:41:13.423Z,1.15
2022-09-01T21:43:47.497Z,1.60
2022-09-01T21:46:20.393Z,1.38
2022-09-01T21:48:51.506Z,1.83
2022-09-01T21:51:21.704Z,1.40
2022-09-01T21:53:51.886Z,1.50
2022-09-01T21:56:25.612Z,1.52
2022-09-01T21:58:58.368Z,1.45
2022-09-01T22:01:31.874Z,1.70
2022-09-01T22:04:04.414Z,1.80
2022-09-01T22:06:35.697Z,1.40
2022-09-01T22:09:20.743Z,1.48
2022-09-01T22:11:54.011Z,1.30
2022-09-01T22:14:25.962Z,1.30
2022-09-01T22:17:03.512Z,1.30
2022-09-01T22:19:36.287Z,1.90
2022-09-01T22:22:07.483Z,1.48
2022-09-01T22:24:37.801Z,1.60
2022-09-01T22:27:08.368Z,1.40
2022-09-01T22:29:38.520Z,1.40
2022-09-01T22:32:11.431Z,1.60
2022-09-01T22:34:43.551Z,1.40
2022-09-01T22:37:13.873Z,1.50
2022-09-01T22:39:44.222Z,1.40
2022-09-01T22:42:14.578Z,1.50
2022-09-01T22:44:44.785Z,1.30
2022-09-01T22:47:17.662Z,1.30
2022-09-01T22:49:48.442Z,2.47
2022-09-01T22:52:18.914Z,1.50
2022-09-01T22:54:49.128Z,1.40
2022-09-01T22:57:20.317Z,1.50
2022-09-01T22:59:50.676Z,1.40
2022-09-01T23:02:23.864Z,1.38
2022-09-01T23:04:54.368Z,1.48
2022-09-01T23:07:24.666Z,1.40
2022-09-01T23:09:54.798Z,1.45
2022-09-01T23:12:25.015Z,1.60
2022-09-01T23:14:55.362Z,1.38
2022-09-01T23:17:28.250Z,1.70
2022-09-01T23:19:58.979Z,1.40
2022-09-01T23:22:29.135Z,1.20
2022-09-01T23:24:59.374Z,1.50
2022-09-01T23:27:29.807Z,1.75
2022-09-01T23:30:00.337Z,1.88
2022-09-01T23:32:33.182Z,1.77
2022-09-01T23:35:03.466Z,1.48
2022-09-01T23:37:33.685Z,1.70
2022-09-01T23:40:04.103Z,2.08
2022-09-01T23:42:34.352Z,1.50
2022-09-01T23:45:04.520Z,1.50
2022-09-01T23:47:37.404Z,1.42
2022-09-01T23:50:09.465Z,1.60
2022-09-01T23:52:39.832Z,1.73
2022-09-01T23:55:11.921Z,1.75
2022-09-01T23:57:42.127Z,1.52
